Decoded Metar for NZAA (AUCKLAND in NEW ZEALAND) (IATA:AKL) | Meteo·Mobile Aviation Weather
aviador You're here:

NZAA Decoded Metar

AUCKLAND in NEW ZEALAND
Report Time2018-08-16 00:30:00
UTC Time2018-08-16 00:48:22
Flight Rules vfr VFR
Wind270° at 12 kt
W.Decomp.*RWY 23: 11.3 kt HW 4.1 kt RCW
W.Rank270° ranks 18
Current wind is below 270° avg. (12.2)
Visibility9999 m
Phenomena:N/A
Clouds:Broken 045 Hf
Expected CloudBase > 2,000 ft AGL from Temp-Dew spread
Ceiling4,500 ft
Temp16°C (ISA +1)
Dew Point11°C (72% RH)
AAT12.0°C
QNH1009 hPa
Density Alt456 ft
Elevation20 ft
Report Wrong Elevation
Raw Report
NZAA 160030Z AUTO 27012KT 9999 BKN045/// 16/11 Q1009 NOSIG=

Extra information for NZAA:More info

Metar Taf Metar & Taf Last 4 Metars F.Rules Stats Wind Profile Meteogram Temp Stats Airport Information Weather charts Add Link Nearby VenuesMetar ALERT Operation Metar Decoded Social comments